Latest Coastal Weather Observations for Troughton Island

IDD60701

Issued at 1:51 pm CST Monday 25 July 2016 (issued every 10 minutes, with the page automatically refreshed every 10 minutes)

About coastal observations | Map of coastal stations | Coastal observations for NT | Marine services | Other Formats
Station Details ID: 001007 Name: TROUGHTON ISLAND Lat: -13.75 Lon: 126.15 Height: 6.0 m
Data from the previous 72 hours. | See also: Recent months at Troughton Island
Date/Time
CST
Temp
°C
Wind Pressure Rain since
9am
mm
Weather Cloud Vis
km
Sea
Height
m
Swell
Dir  Spd
kts
Gust
kts
hPa Trend Height
m
Period
s
Dir
25/01:30pm 28.9 ENE 5 6 1012.3 - 0.0 - - - - - - -
25/01:00pm 29.1 NE 4 6 1012.9 - 0.0 - - - - - - -
25/12:30pm 29.0 E 5 6 1013.4 - 0.0 - - - - - - -
25/12:00pm 28.4 ENE 5 7 1013.9 - 0.0 - - - - - - -
25/11:30am 28.4 ESE 6 7 1014.1 - 0.0 - - - - - - -
25/11:00am 28.3 ESE 7 8 1014.2 - 0.0 - - - - - - -
25/10:30am 28.0 E 9 11 1014.4 - 0.0 - - - - - - -
25/10:00am 27.8 SE 9 11 1014.1 - 0.0 - - - - - - -
25/09:30am 27.2 SE 10 12 1013.9 - 0.0 - - - - - - -
25/09:00am 26.9 SE 9 11 1013.6 - 0.0 - - - - - - -
25/08:30am 26.2 SE 7 9 1013.1 - 0.0 - - - - - - -
25/08:00am 25.1 SE 7 8 1012.9 - 0.0 - - - - - - -
25/07:30am 24.8 SSE 8 9 1012.6 - 0.0 - - - - - - -
25/07:00am 24.8 SE 8 9 1012.5 - 0.0 - - - - - - -
25/06:30am 24.8 SE 9 10 1012.2 - 0.0 - - - - - - -
25/06:00am 24.4 SSE 6 8 1012.0 - 0.0 - - - - - - -
25/05:30am 24.2 SE 6 7 1011.9 - 0.0 - - - - - - -
25/05:00am 24.6 SSE 4 5 1011.9 - 0.0 - - - - - - -
25/04:30am 24.4 S 4 5 1011.8 - 0.0 - - - - - - -
25/04:00am 24.6 S 5 7 1011.9 - 0.0 - - - - - - -
25/03:30am 24.8 S 6 7 1012.1 - 0.0 - - - - - - -
25/03:00am 24.8 SE 5 6 1012.2 - 0.0 - - - - - - -
25/02:30am 24.7 SSE 2 5 1012.5 - 0.0 - - - - - - -
25/02:00am 24.7 ESE 1 5 1012.8 - 0.0 - - - - - - -
25/01:30am 24.6 CALM 0 0 1012.9 - 0.0 - - - - - - -
25/01:00am 25.5 ENE 3 3 1013.1 - 0.0 - - - - - - -
25/12:30am 25.7 ENE 3 3 1013.1 - 0.0 - - - - - - -
25/12:00am 25.6 E 4 4 1013.4 - 0.0 - - - - - - -
 
Date/Time
CST
Temp
°C
Wind Pressure Rain since
9am
mm
Weather Cloud Vis
km
Sea
Height
m
Swell
Dir  Spd
kts
Gust
kts
hPa Trend Height
m
Period
s
Dir
24/11:30pm 25.7 ESE 4 5 1013.7 - 0.0 - - - - - - -
24/11:00pm 25.4 CALM 0 0 1013.6 - 0.0 - - - - - - -
24/10:30pm 25.6 N 1 4 1013.2 - 0.0 - - - - - - -
24/10:00pm 25.4 NW 6 7 1013.0 - 0.0 - - - - - - -
24/09:30pm 25.2 NW 5 6 1012.8 - 0.0 - - - - - - -
24/09:00pm 25.5 NW 7 9 1012.5 - 0.0 - - - - - - -
24/08:30pm 25.9 NNW 8 8 1012.2 - 0.0 - - - - - - -
24/08:00pm 26.3 NNW 7 8 1011.8 - 0.0 - - - - - - -
24/07:30pm 26.3 NNW 7 7 1011.6 - 0.0 - - - - - - -
24/07:00pm 27.2 NNW 7 8 1011.2 - 0.0 - - - - - - -
24/06:30pm 27.6 NNW 6 8 1010.8 - 0.0 - - - - - - -
24/06:00pm 28.1 NNW 7 9 1010.4 - 0.0 - - - - - - -
24/05:30pm 28.3 N 7 9 1010.2 - 0.0 - - - - - - -
24/05:00pm 28.1 N 7 9 1010.1 - 0.0 - - - - - - -
24/04:30pm 28.1 N 7 9 1010.2 - 0.0 - - - - - - -
24/04:00pm 28.7 N 7 9 1010.3 - 0.0 - - - - - - -
24/03:30pm 29.4 WNW 7 7 1010.2 - 0.0 - - - - - - -
24/03:00pm 29.2 W 7 7 1010.4 - 0.0 - - - - - - -
24/02:30pm 30.0 SW 7 8 1010.9 - 0.0 - - - - - - -
24/02:00pm 30.6 WSW 7 9 1011.4 - 0.0 - - - - - - -
24/01:30pm 30.3 WSW 7 9 1011.9 - 0.0 - - - - - - -
24/01:00pm 30.0 SW 7 8 1012.5 - 0.0 - - - - - - -
24/12:30pm 29.9 WSW 5 7 1013.0 - 0.0 - - - - - - -
24/12:00pm 29.8 S 4 5 1013.3 - 0.0 - - - - - - -
24/11:30am 28.9 WSW 5 6 1013.5 - 0.0 - - - - - - -
24/11:00am 29.4 SW 5 7 1013.6 - 0.0 - - - - - - -
24/10:30am 28.7 SW 6 7 1013.7 - 0.0 - - - - - - -
24/10:00am 28.4 SW 5 6 1013.8 - 0.0 - - - - - - -
24/09:30am 27.4 SSW 4 7 1013.7 - 0.0 - - - - - - -
24/09:00am 27.2 SW 4 5 1013.3 - 0.0 - - - - - - -
24/08:30am 26.4 SSW 6 7 1012.9 - 0.0 - - - - - - -
24/08:00am 24.9 SSE 6 7 1012.6 - 0.0 - - - - - - -
24/07:30am 24.4 S 6 7 1012.4 - 0.0 - - - - - - -
24/07:00am 24.3 S 5 5 1012.0 - 0.0 - - - - - - -
24/06:30am 25.1 SE 4 5 1011.8 - 0.0 - - - - - - -
24/06:00am 24.6 SSE 4 5 1011.8 - 0.0 - - - - - - -
24/05:30am 24.5 S 4 5 1011.9 - 0.0 - - - - - - -
24/05:00am 24.8 SSW 5 6 1011.8 - 0.0 - - - - - - -
24/04:30am 25.2 SW 5 6 1011.5 - 0.0 - - - - - - -
24/04:00am 25.3 SSW 6 6 1011.6 - 0.0 - - - - - - -
24/03:30am 25.5 SW 7 8 1011.8 - 0.0 - - - - - - -
24/03:00am 25.5 SW 8 9 1012.0 - 0.0 - - - - - - -
24/02:30am 25.5 SSW 6 7 1012.5 - 0.0 - - - - - - -
24/02:00am 24.7 SSW 4 5 1012.5 - 0.0 - - - - - - -
24/01:30am 24.9 SSW 1 3 1012.5 - 0.0 - - - - - - -
24/01:00am 25.1 SSW 4 4 1012.5 - 0.0 - - - - - - -
24/12:30am 25.2 SSW 5 6 1012.7 - 0.0 - - - - - - -
24/12:00am 25.3 SSW 5 6 1012.7 - 0.0 - - - - - - -
 
Date/Time
CST
Temp
°C
Wind Pressure Rain since
9am
mm
Weather Cloud Vis
km
Sea
Height
m
Swell
Dir  Spd
kts
Gust
kts
hPa Trend Height
m
Period
s
Dir
23/11:30pm 25.5 SSW 5 6 1012.7 - 0.0 - - - - - - -
23/11:00pm 25.3 WSW 4 5 1012.4 - 0.0 - - - - - - -
23/10:30pm 25.6 S 3 3 1012.4 - 0.0 - - - - - - -
23/10:00pm 25.8 CALM 0 0 1012.2 - 0.0 - - - - - - -
23/09:30pm 25.7 SSW 3 3 1012.1 - 0.0 - - - - - - -
23/09:00pm 25.8 SW 4 4 1011.8 - 0.0 - - - - - - -
23/08:30pm 26.0 WSW 2 4 1011.6 - 0.0 - - - - - - -
23/08:00pm 26.0 WSW 5 6 1011.1 - 0.0 - - - - - - -
23/07:30pm 26.2 WSW 6 6 1010.9 - 0.0 - - - - - - -
23/07:00pm 26.7 WSW 7 7 1010.8 - 0.0 - - - - - - -
23/06:30pm 27.5 W 7 11 1010.6 - 0.0 - - - - - - -
23/06:00pm 27.8 WSW 10 11 1010.2 - 0.0 - - - - - - -
23/05:30pm 28.4 W 10 11 1010.0 - 0.0 - - - - - - -
23/05:00pm 28.7 WNW 9 11 1009.9 - 0.0 - - - - - - -
23/04:30pm 29.1 WNW 9 11 1010.0 - 0.0 - - - - - - -
23/04:00pm 28.7 WNW 7 8 1010.3 - 0.0 - - - - - - -
23/03:30pm 29.3 WNW 6 8 1010.7 - 0.0 - - - - - - -
23/03:00pm 29.2 WNW 6 7 1011.2 - 0.0 - - - - - - -
23/02:30pm 29.0 W 7 7 1011.7 - 0.0 - - - - - - -
23/02:00pm 29.3 W 6 7 1012.2 - 0.0 - - - - - - -
23/01:30pm 29.2 W 5 6 1012.5 - 0.0 - - - - - - -
23/01:00pm 29.7 NW 3 5 1013.1 - 0.0 - - - - - - -
23/12:30pm 28.8 WSW 5 6 1013.3 - 0.0 - - - - - - -
23/12:00pm 29.2 SSW 7 9 1013.4 - 0.0 - - - - - - -
23/11:30am 28.9 SSW 7 9 1013.9 - 0.0 - - - - - - -
23/11:00am 29.2 SSW 9 11 1014.2 - 0.0 - - - - - - -
23/10:30am 28.1 SSW 9 11 1014.4 - 0.0 - - - - - - -
23/10:00am 27.4 SW 9 10 1014.3 - 0.0 - - - - - - -
23/09:30am 26.8 SSW 7 9 1014.2 - 0.0 - - - - - - -
23/09:00am 26.8 S 7 9 1014.2 - 0.0 - - - - - - -
23/08:30am 26.0 SSW 4 8 1013.8 - 0.0 - - - - - - -
23/08:00am 25.3 SW 8 12 1013.6 - 0.0 - - - - - - -
23/07:30am 25.0 SSW 12 14 1012.9 - 0.0 - - - - - - -
23/07:00am 24.8 SSW 13 15 1012.5 - 0.0 - - - - - - -
23/06:30am 25.0 SSW 12 15 1012.4 - 0.0 - - - - - - -
23/06:00am 25.0 SSW 12 14 1012.3 - 0.0 - - - - - - -
23/05:30am 25.1 SSW 11 12 1012.0 - 0.0 - - - - - - -
23/05:00am 25.1 SSW 9 11 1011.9 - 0.0 - - - - - - -
23/04:30am 25.0 SSW 8 9 1012.0 - 0.0 - - - - - - -
23/04:00am 25.2 SSW 8 9 1012.1 - 0.0 - - - - - - -
23/03:30am 25.2 SSW 7 8 1012.3 - 0.0 - - - - - - -
23/03:00am 25.2 SSW 7 8 1012.6 - 0.0 - - - - - - -
23/02:30am 25.2 SSW 7 8 1012.6 - 0.0 - - - - - - -
23/02:00am 25.1 SW 6 8 1012.8 - 0.0 - - - - - - -
23/01:30am 25.0 SW 6 7 1012.9 - 0.0 - - - - - - -
23/01:00am 24.5 SSW 5 7 1013.1 - 0.0 - - - - - - -
23/12:30am 24.7 CALM 0 0 1013.0 - 0.0 - - - - - - -
23/12:00am 24.7 CALM 0 0 1013.1 - 0.0 - - - - - - -
 
Date/Time
CST
Temp
°C
Wind Pressure Rain since
9am
mm
Weather Cloud Vis
km
Sea
Height
m
Swell
Dir  Spd
kts
Gust
kts
hPa Trend Height
m
Period
s
Dir
22/11:30pm 24.5 S 3 4 1013.3 - 0.0 - - - - - - -
22/11:00pm 24.2 NNW 2 4 1013.4 - 0.0 - - - - - - -
22/10:30pm 24.1 CALM 0 0 1013.1 - 0.0 - - - - - - -
22/10:00pm 24.5 CALM 0 0 1012.8 - 0.0 - - - - - - -
22/09:30pm 24.9 CALM 0 0 1012.4 - 0.0 - - - - - - -
22/09:00pm 25.1 NNW 1 3 1012.1 - 0.0 - - - - - - -
22/08:30pm 26.1 N 3 4 1011.9 - 0.0 - - - - - - -
22/08:00pm 26.3 NNE 3 4 1011.6 - 0.0 - - - - - - -
22/07:30pm 26.8 N 5 5 1011.3 - 0.0 - - - - - - -
22/07:00pm 26.2 NW 4 6 1011.3 - 0.0 - - - - - - -
22/06:30pm 27.6 NW 6 7 1010.9 - 0.0 - - - - - - -
22/06:00pm 27.8 N 7 9 1010.8 - 0.0 - - - - - - -
22/05:30pm 28.9 NNE 9 11 1010.6 - 0.0 - - - - - - -
22/05:00pm 28.7 N 7 8 1010.6 - 0.0 - - - - - - -
22/04:30pm 29.2 N 7 9 1010.7 - 0.0 - - - - - - -
22/04:00pm 30.2 NE 5 8 1010.9 - 0.0 - - - - - - -
22/03:30pm 29.2 W 6 7 1011.1 - 0.0 - - - - - - -

Other Formats:

Comma delimited format used in spreadsheet applications
http://www.bom.gov.au/fwo/IDD60701/IDD60701.94102.axf

JavaScript Object Notation format (JSON) in row-major order
http://www.bom.gov.au/fwo/IDD60701/IDD60701.94102.json